createdAt,value
2022-09-12T00:01:36.399Z,11.29
2022-09-12T00:04:03.238Z,11.29
2022-09-12T00:06:33.096Z,11.29
2022-09-12T00:09:03.074Z,11.28
2022-09-12T00:11:30.291Z,11.23
2022-09-12T00:14:01.816Z,11.24
2022-09-12T00:16:29.877Z,11.22
2022-09-12T00:18:56.613Z,11.18
2022-09-12T00:21:24.711Z,11.23
2022-09-12T00:23:52.082Z,11.24
2022-09-12T00:26:20.632Z,11.25
2022-09-12T00:28:48.299Z,11.25
2022-09-12T00:31:17.977Z,11.18
2022-09-12T00:33:44.999Z,11.16
2022-09-12T00:36:15.318Z,11.16
2022-09-12T00:38:43.127Z,11.11
2022-09-12T00:41:34.264Z,11.13
2022-09-12T00:44:22.856Z,11.11
2022-09-12T00:46:52.537Z,11.07
2022-09-12T00:49:30.419Z,10.98
2022-09-12T00:52:09.889Z,10.97
2022-09-12T00:54:45.291Z,10.94
2022-09-12T00:57:14.742Z,10.85
2022-09-12T00:59:52.241Z,10.80
2022-09-12T01:02:18.924Z,10.77
2022-09-12T01:04:47.901Z,10.75
2022-09-12T01:07:15.465Z,10.76
2022-09-12T01:09:44.634Z,10.78
2022-09-12T01:12:12.801Z,10.80
2022-09-12T01:14:39.828Z,10.77
2022-09-12T01:17:06.609Z,10.75
2022-09-12T01:20:15.638Z,10.73
2022-09-12T01:22:51.452Z,10.72
2022-09-12T01:25:31.644Z,10.68
2022-09-12T01:28:30.651Z,10.68
2022-09-12T01:31:00.940Z,10.71
2022-09-12T01:33:50.839Z,10.73
2022-09-12T01:36:36.185Z,10.77
2022-09-12T01:39:04.888Z,10.74
2022-09-12T01:41:50.369Z,10.73
2022-09-12T01:44:20.087Z,10.69
2022-09-12T01:47:10.238Z,10.61
2022-09-12T01:50:15.684Z,10.56
2022-09-12T01:52:51.170Z,10.52
2022-09-12T01:55:29.899Z,10.52
2022-09-12T01:58:12.563Z,10.51
2022-09-12T02:00:48.177Z,10.47
2022-09-12T02:03:20.717Z,10.44
2022-09-12T02:05:55.021Z,10.48
2022-09-12T02:08:48.566Z,10.46
2022-09-12T02:11:15.281Z,10.44
2022-09-12T02:13:55.243Z,10.41
2022-09-12T02:16:36.691Z,10.36
2022-09-12T02:19:09.664Z,10.33
2022-09-12T02:21:41.782Z,10.33
2022-09-12T02:24:09.947Z,10.35
2022-09-12T02:26:44.323Z,10.32
2022-09-12T02:29:11.088Z,10.30
2022-09-12T02:31:46.611Z,10.34
2022-09-12T02:34:28.939Z,10.36
2022-09-12T02:37:17.801Z,10.35
2022-09-12T02:39:45.486Z,10.27
2022-09-12T02:42:13.463Z,10.23
2022-09-12T02:44:41.028Z,10.19
2022-09-12T02:47:26.778Z,10.18
2022-09-12T02:49:54.260Z,10.13
2022-09-12T02:52:21.502Z,10.10
2022-09-12T02:54:49.178Z,10.12
2022-09-12T02:57:22.380Z,10.10
2022-09-12T02:59:52.667Z,10.11
2022-09-12T03:02:48.677Z,10.11
2022-09-12T03:05:31.889Z,10.07
2022-09-12T03:08:17.293Z,10.05
2022-09-12T03:11:05.481Z,10.04
2022-09-12T03:13:58.175Z,10.02
2022-09-12T03:16:58.405Z,9.99
2022-09-12T03:19:27.898Z,9.96
2022-09-12T03:22:11.623Z,9.94
2022-09-12T03:24:48.577Z,9.93
2022-09-12T03:27:19.043Z,9.90
2022-09-12T03:29:48.196Z,9.86
2022-09-12T03:32:15.468Z,9.81
2022-09-12T03:34:42.097Z,9.70
2022-09-12T03:37:08.776Z,9.69
2022-09-12T03:39:35.513Z,9.66
2022-09-12T03:42:02.185Z,9.64
2022-09-12T03:44:29.142Z,9.65
2022-09-12T03:46:55.844Z,9.65
2022-09-12T03:49:22.610Z,9.65
2022-09-12T03:51:49.347Z,9.64
2022-09-12T03:54:16.168Z,9.57
2022-09-12T03:56:42.797Z,9.61
2022-09-12T03:59:09.435Z,9.66
2022-09-12T04:01:36.129Z,9.72
2022-09-12T04:04:02.945Z,9.66
2022-09-12T04:06:29.835Z,9.60
2022-09-12T04:08:56.522Z,9.53
2022-09-12T04:11:23.639Z,9.50
2022-09-12T04:13:50.328Z,9.48
2022-09-12T04:16:18.073Z,9.45
2022-09-12T04:18:45.905Z,9.44
2022-09-12T04:21:18.904Z,9.39
2022-09-12T04:23:45.834Z,9.34
2022-09-12T04:26:13.917Z,9.38
2022-09-12T04:28:41.801Z,9.39
2022-09-12T04:31:15.683Z,9.41
2022-09-12T04:33:42.363Z,9.44
2022-09-12T04:36:12.177Z,9.39
2022-09-12T04:38:39.052Z,9.39
2022-09-12T04:41:16.933Z,9.36
2022-09-12T04:43:46.578Z,9.32
2022-09-12T04:46:15.490Z,9.30
2022-09-12T04:48:43.333Z,9.30
2022-09-12T04:51:12.258Z,9.29
2022-09-12T04:53:39.138Z,9.27
2022-09-12T04:56:08.151Z,9.30
2022-09-12T04:58:35.808Z,9.32
2022-09-12T05:01:11.766Z,9.33
2022-09-12T05:03:39.615Z,9.29
2022-09-12T05:06:08.418Z,9.33
2022-09-12T05:08:35.567Z,9.36
2022-09-12T05:11:05.105Z,9.39
2022-09-12T05:13:32.987Z,9.43
2022-09-12T05:16:01.567Z,9.44
2022-09-12T05:18:29.140Z,9.51
2022-09-12T05:20:55.741Z,9.57
2022-09-12T05:23:22.575Z,9.60
2022-09-12T05:25:53.303Z,9.66
2022-09-12T05:28:21.123Z,9.67
2022-09-12T05:30:48.533Z,9.67
2022-09-12T05:33:15.509Z,9.72
2022-09-12T05:35:42.100Z,9.81
2022-09-12T05:38:08.737Z,9.98
2022-09-12T05:40:35.772Z,10.17
2022-09-12T05:43:02.414Z,10.35
2022-09-12T05:45:29.985Z,10.50
2022-09-12T05:47:56.717Z,10.69
2022-09-12T05:50:23.362Z,10.77
2022-09-12T05:52:50.593Z,10.90
2022-09-12T05:55:17.368Z,11.10
2022-09-12T05:57:46.102Z,11.30
2022-09-12T06:00:14.955Z,11.46
2022-09-12T06:02:42.204Z,11.57
2022-09-12T06:05:09.178Z,11.69
2022-09-12T06:07:36.175Z,11.83
2022-09-12T06:10:05.354Z,12.02
2022-09-12T06:12:32.134Z,12.21
2022-09-12T06:14:58.734Z,12.42
2022-09-12T06:17:25.363Z,12.56
2022-09-12T06:19:52.054Z,12.77
2022-09-12T06:22:19.257Z,12.94
2022-09-12T06:24:45.934Z,13.18
2022-09-12T06:27:12.581Z,13.42
2022-09-12T06:29:39.239Z,13.60
2022-09-12T06:32:07.031Z,13.84
2022-09-12T06:34:33.872Z,14.05
2022-09-12T06:37:00.528Z,14.28
2022-09-12T06:39:27.269Z,14.47
2022-09-12T06:41:54.338Z,14.67
2022-09-12T06:44:32.947Z,14.84
2022-09-12T06:46:59.633Z,15.02
2022-09-12T06:49:26.451Z,15.25
2022-09-12T06:51:53.086Z,15.52
2022-09-12T06:54:20.159Z,15.79
2022-09-12T06:56:46.859Z,15.87
2022-09-12T06:59:13.556Z,16.14
2022-09-12T07:01:41.874Z,16.42
2022-09-12T07:04:08.814Z,16.63
2022-09-12T07:06:40.700Z,16.87
2022-09-12T07:09:10.542Z,16.88
2022-09-12T07:11:38.467Z,16.83
2022-09-12T07:14:06.839Z,16.92
2022-09-12T07:16:35.961Z,17.02
2022-09-12T07:19:04.181Z,17.08
2022-09-12T07:21:30.945Z,17.27
2022-09-12T07:23:58.467Z,17.29
2022-09-12T07:26:28.126Z,17.21
2022-09-12T07:29:07.930Z,17.28
2022-09-12T07:31:39.748Z,17.22
2022-09-12T07:34:06.864Z,17.22
2022-09-12T07:36:34.480Z,16.97
2022-09-12T07:39:01.722Z,16.97
2022-09-12T07:41:30.701Z,17.11
2022-09-12T07:43:59.061Z,17.27
2022-09-12T07:46:27.819Z,17.36
2022-09-12T07:48:56.501Z,17.50
2022-09-12T07:51:24.418Z,17.59
2022-09-12T07:53:51.858Z,17.63
2022-09-12T07:56:19.957Z,17.69
2022-09-12T07:58:47.121Z,17.95
2022-09-12T08:01:23.157Z,17.88
2022-09-12T08:03:54.307Z,17.76
2022-09-12T08:06:25.212Z,17.82
2022-09-12T08:08:54.185Z,17.81
2022-09-12T08:11:23.170Z,17.66
2022-09-12T08:13:55.424Z,17.87
2022-09-12T08:16:24.574Z,17.96
2022-09-12T08:18:51.437Z,18.08
2022-09-12T08:21:23.221Z,18.50
2022-09-12T08:24:01.777Z,18.37
2022-09-12T08:26:28.936Z,18.36
2022-09-12T08:28:55.610Z,18.24
2022-09-12T08:31:24.326Z,18.30
2022-09-12T08:33:51.175Z,18.51
2022-09-12T08:36:21.232Z,18.59
2022-09-12T08:38:50.249Z,18.74
2022-09-12T08:41:55.996Z,18.71
2022-09-12T08:44:28.664Z,18.94
2022-09-12T08:47:26.884Z,19.25
2022-09-12T08:50:08.938Z,19.07
2022-09-12T08:52:41.560Z,19.20
2022-09-12T08:55:25.734Z,18.57
2022-09-12T08:57:52.779Z,18.64
2022-09-12T09:00:21.461Z,18.87
2022-09-12T09:02:54.366Z,18.79
2022-09-12T09:05:30.047Z,18.71
2022-09-12T09:08:05.745Z,18.94
2022-09-12T09:10:35.296Z,19.02
2022-09-12T09:13:51.976Z,19.00
2022-09-12T09:16:32.233Z,19.14
2022-09-12T09:19:04.457Z,19.03
2022-09-12T09:21:54.567Z,19.54
2022-09-12T09:24:33.901Z,19.27
2022-09-12T09:27:39.227Z,19.39
2022-09-12T09:30:14.328Z,19.38
2022-09-12T09:32:42.846Z,19.55
2022-09-12T09:35:39.210Z,19.95
2022-09-12T09:38:22.366Z,19.73
2022-09-12T09:41:09.191Z,19.94
2022-09-12T09:43:38.012Z,19.92
2022-09-12T09:46:05.401Z,19.92
2022-09-12T09:48:35.932Z,20.12
2022-09-12T09:51:07.169Z,20.03
2022-09-12T09:53:58.317Z,19.94
2022-09-12T09:56:36.905Z,20.05
2022-09-12T09:59:15.541Z,19.73
2022-09-12T10:02:03.938Z,19.78
2022-09-12T10:04:41.432Z,20.11
2022-09-12T10:07:19.936Z,20.37
2022-09-12T10:10:07.057Z,20.07
2022-09-12T10:12:33.709Z,19.87
2022-09-12T10:15:02.311Z,19.77
2022-09-12T10:17:34.633Z,19.75
2022-09-12T10:20:20.448Z,20.06
2022-09-12T10:22:49.337Z,20.02
2022-09-12T10:25:18.652Z,20.16
2022-09-12T10:27:53.771Z,20.44
2022-09-12T10:30:24.775Z,20.30
2022-09-12T10:32:54.197Z,20.28
2022-09-12T10:35:42.547Z,20.57
2022-09-12T10:38:24.962Z,20.63
2022-09-12T10:41:01.484Z,20.83
2022-09-12T10:43:39.227Z,21.29
2022-09-12T10:46:15.685Z,21.09
2022-09-12T10:48:44.533Z,20.70
2022-09-12T10:51:28.967Z,20.85
2022-09-12T10:54:01.062Z,21.40
2022-09-12T10:56:33.672Z,21.45
2022-09-12T10:59:16.772Z,21.29
2022-09-12T11:01:49.575Z,20.97
2022-09-12T11:04:45.816Z,21.04
2022-09-12T11:07:27.465Z,21.05
2022-09-12T11:10:03.079Z,20.91
2022-09-12T11:12:51.220Z,20.90
2022-09-12T11:15:27.008Z,21.29
2022-09-12T11:18:14.853Z,21.71
2022-09-12T11:21:02.009Z,21.72
2022-09-12T11:24:07.183Z,21.68
2022-09-12T11:26:52.052Z,21.96
2022-09-12T11:29:45.709Z,21.92
2022-09-12T11:32:27.577Z,22.06
2022-09-12T11:34:58.248Z,21.87
2022-09-12T11:37:55.852Z,21.62
2022-09-12T11:40:22.975Z,21.81
2022-09-12T11:42:54.656Z,21.58
2022-09-12T11:45:29.324Z,21.62
2022-09-12T11:48:04.187Z,21.85
2022-09-12T11:50:32.354Z,21.89
2022-09-12T11:53:12.532Z,22.13
2022-09-12T11:55:49.374Z,21.92
2022-09-12T11:58:20.178Z,21.86
2022-09-12T12:01:03.308Z,22.04
2022-09-12T12:03:40.334Z,22.13
2022-09-12T12:06:31.927Z,21.93
2022-09-12T12:08:59.087Z,22.16
2022-09-12T12:11:31.020Z,22.24
2022-09-12T12:14:06.145Z,22.34
2022-09-12T12:16:37.213Z,22.57
2022-09-12T12:19:31.281Z,22.37
2022-09-12T12:22:09.080Z,22.10
2022-09-12T12:24:55.795Z,22.27
2022-09-12T12:27:55.273Z,22.38
2022-09-12T12:30:31.147Z,22.20
2022-09-12T12:33:16.011Z,22.45
2022-09-12T12:35:47.933Z,22.32
2022-09-12T12:38:29.798Z,22.41
2022-09-12T12:41:15.211Z,22.64
2022-09-12T12:43:41.971Z,22.51
2022-09-12T12:46:14.373Z,22.49
2022-09-12T12:48:55.611Z,22.54
2022-09-12T12:51:49.393Z,22.28
2022-09-12T12:54:51.081Z,22.30
2022-09-12T12:57:19.881Z,22.53
2022-09-12T12:59:58.235Z,22.61
2022-09-12T13:02:41.358Z,22.96
2022-09-12T13:05:21.139Z,22.94
2022-09-12T13:07:55.715Z,22.95
2022-09-12T13:10:25.307Z,22.92
2022-09-12T13:12:53.177Z,22.41
2022-09-12T13:15:38.042Z,22.87
2022-09-12T13:18:27.908Z,22.94
2022-09-12T13:20:54.475Z,22.69
2022-09-12T13:23:26.628Z,22.87
2022-09-12T13:26:01.916Z,23.37
2022-09-12T13:28:30.159Z,23.46
2022-09-12T13:31:25.805Z,23.40
2022-09-12T13:33:59.985Z,23.02
2022-09-12T13:36:30.139Z,23.37
2022-09-12T13:39:15.505Z,23.70
2022-09-12T13:42:03.273Z,23.16
2022-09-12T13:44:32.836Z,23.34
2022-09-12T13:47:03.075Z,23.39
2022-09-12T13:49:35.319Z,23.23
2022-09-12T13:52:06.275Z,23.32
2022-09-12T13:54:37.918Z,23.63
2022-09-12T13:57:05.269Z,23.63
2022-09-12T13:59:42.748Z,23.76
2022-09-12T14:02:23.784Z,23.72
2022-09-12T14:05:11.495Z,23.83
2022-09-12T14:07:56.196Z,23.55
2022-09-12T14:10:35.746Z,23.66
2022-09-12T14:13:10.556Z,23.53
2022-09-12T14:15:37.904Z,23.03
2022-09-12T14:18:08.875Z,23.00
2022-09-12T14:20:38.679Z,22.71
2022-09-12T14:23:22.213Z,22.40
2022-09-12T14:25:49.961Z,22.33
2022-09-12T14:28:23.146Z,22.52
2022-09-12T14:31:01.672Z,22.56
2022-09-12T14:33:29.466Z,22.57
2022-09-12T14:36:34.590Z,22.78
2022-09-12T14:39:04.598Z,22.71
2022-09-12T14:41:38.456Z,22.48
2022-09-12T14:44:08.556Z,22.16
2022-09-12T14:46:37.979Z,22.25
2022-09-12T14:49:41.169Z,22.31
2022-09-12T14:52:25.075Z,22.13
2022-09-12T14:55:03.785Z,21.93
2022-09-12T14:57:38.887Z,21.70
2022-09-12T15:00:11.844Z,21.84
2022-09-12T15:02:42.909Z,22.02
2022-09-12T15:05:12.049Z,22.12
2022-09-12T15:08:00.530Z,22.08
2022-09-12T15:10:38.143Z,21.84
2022-09-12T15:13:16.992Z,21.57
2022-09-12T15:15:47.913Z,21.63
2022-09-12T15:18:15.123Z,21.67
2022-09-12T15:20:44.282Z,21.47
2022-09-12T15:23:17.050Z,21.31
2022-09-12T15:25:43.625Z,21.16
2022-09-12T15:28:18.029Z,21.22
2022-09-12T15:30:45.142Z,21.24
2022-09-12T15:33:12.227Z,21.09
2022-09-12T15:35:39.392Z,21.08
2022-09-12T15:38:06.099Z,20.99
2022-09-12T15:40:32.693Z,20.98
2022-09-12T15:42:59.750Z,20.99
2022-09-12T15:45:29.422Z,21.01
2022-09-12T15:47:56.797Z,20.89
2022-09-12T15:50:23.868Z,20.83
2022-09-12T15:52:50.566Z,20.81
2022-09-12T15:55:22.294Z,20.85
2022-09-12T15:57:48.871Z,20.81
2022-09-12T16:00:17.828Z,20.77
2022-09-12T16:02:46.440Z,20.77
2022-09-12T16:05:23.367Z,20.74
2022-09-12T16:07:53.329Z,20.64
2022-09-12T16:10:23.865Z,20.50
2022-09-12T16:12:51.441Z,20.50
2022-09-12T16:15:21.258Z,20.52
2022-09-12T16:17:47.999Z,20.42
2022-09-12T16:20:14.900Z,20.31
2022-09-12T16:22:41.749Z,20.24
2022-09-12T16:25:09.210Z,20.18
2022-09-12T16:27:37.468Z,20.16
2022-09-12T16:30:07.229Z,20.12
2022-09-12T16:32:33.980Z,20.07
2022-09-12T16:35:00.709Z,20.01
2022-09-12T16:37:27.618Z,20.01
2022-09-12T16:39:54.229Z,19.97
2022-09-12T16:42:20.925Z,19.91
2022-09-12T16:44:47.677Z,19.93
2022-09-12T16:47:14.925Z,19.90
2022-09-12T16:49:41.534Z,19.86
2022-09-12T16:52:08.714Z,19.80
2022-09-12T16:54:35.363Z,19.69
2022-09-12T16:57:02.648Z,19.65
2022-09-12T16:59:29.327Z,19.60
2022-09-12T17:01:56.048Z,19.52
2022-09-12T17:04:23.707Z,19.40
2022-09-12T17:06:50.549Z,19.32
2022-09-12T17:09:18.678Z,19.20
2022-09-12T17:11:47.790Z,19.11
2022-09-12T17:14:14.436Z,19.04
2022-09-12T17:16:47.967Z,19.03
2022-09-12T17:19:26.429Z,18.96
2022-09-12T17:21:53.097Z,18.88
2022-09-12T17:24:20.213Z,18.88
2022-09-12T17:26:47.048Z,18.86
2022-09-12T17:29:14.251Z,18.79
2022-09-12T17:31:41.917Z,18.74
2022-09-12T17:34:09.214Z,18.70
2022-09-12T17:36:35.864Z,18.63
2022-09-12T17:39:04.161Z,18.52
2022-09-12T17:41:34.726Z,18.50
2022-09-12T17:44:03.443Z,18.48
2022-09-12T17:46:34.954Z,18.39
2022-09-12T17:49:03.638Z,18.33
2022-09-12T17:51:31.244Z,18.22
2022-09-12T17:54:00.122Z,18.17
2022-09-12T17:56:28.398Z,18.10
2022-09-12T17:58:56.731Z,18.03
2022-09-12T18:01:43.160Z,17.98
2022-09-12T18:04:10.832Z,17.88
2022-09-12T18:06:38.037Z,17.78
2022-09-12T18:09:07.658Z,17.73
2022-09-12T18:11:34.698Z,17.73
2022-09-12T18:14:02.635Z,17.72
2022-09-12T18:16:29.546Z,17.65
2022-09-12T18:18:56.379Z,17.55
2022-09-12T18:21:23.026Z,17.46
2022-09-12T18:23:49.627Z,17.36
2022-09-12T18:26:16.297Z,17.27
2022-09-12T18:28:44.354Z,17.11
2022-09-12T18:31:14.458Z,16.99
2022-09-12T18:33:41.239Z,16.89
2022-09-12T18:36:10.523Z,16.80
2022-09-12T18:38:38.073Z,16.72
2022-09-12T18:41:06.741Z,16.69
2022-09-12T18:43:33.416Z,16.68
2022-09-12T18:46:07.247Z,16.74
2022-09-12T18:48:34.944Z,16.82
2022-09-12T18:51:09.889Z,16.86
2022-09-12T18:53:37.431Z,16.80
2022-09-12T18:56:10.307Z,16.65
2022-09-12T18:58:38.890Z,16.52
2022-09-12T19:01:17.668Z,16.31
2022-09-12T19:03:45.613Z,16.22
2022-09-12T19:06:17.949Z,16.15
2022-09-12T19:08:45.703Z,16.02
2022-09-12T19:11:13.220Z,15.93
2022-09-12T19:13:43.228Z,15.84
2022-09-12T19:16:14.220Z,15.70
2022-09-12T19:18:41.631Z,15.63
2022-09-12T19:21:16.678Z,15.58
2022-09-12T19:23:43.664Z,15.49
2022-09-12T19:26:12.592Z,15.34
2022-09-12T19:28:39.812Z,15.23
2022-09-12T19:31:12.969Z,15.14
2022-09-12T19:33:40.518Z,15.27
2022-09-12T19:36:33.742Z,15.50
2022-09-12T19:38:58.653Z,15.66
2022-09-12T19:41:25.442Z,15.71
2022-09-12T19:43:52.031Z,15.59
2022-09-12T19:46:20.795Z,15.49
2022-09-12T19:48:47.895Z,15.42
2022-09-12T19:51:16.106Z,15.34
2022-09-12T19:53:43.543Z,15.27
2022-09-12T19:56:12.005Z,15.24
2022-09-12T19:58:44.285Z,15.21
2022-09-12T20:01:13.262Z,15.13
2022-09-12T20:03:40.182Z,15.15
2022-09-12T20:06:09.507Z,15.25
2022-09-12T20:08:43.934Z,15.20
2022-09-12T20:11:12.303Z,15.16
2022-09-12T20:13:39.257Z,15.09
2022-09-12T20:16:21.755Z,15.07
2022-09-12T20:18:57.650Z,15.11
2022-09-12T20:21:31.226Z,15.25
2022-09-12T20:24:01.519Z,15.37
2022-09-12T20:26:28.175Z,15.42
2022-09-12T20:28:54.831Z,15.45
2022-09-12T20:31:21.585Z,15.46
2022-09-12T20:33:51.801Z,15.48
2022-09-12T20:36:20.695Z,15.48
2022-09-12T20:38:49.893Z,15.48
2022-09-12T20:41:17.275Z,15.46
2022-09-12T20:43:43.874Z,15.46
2022-09-12T20:46:11.435Z,15.50
2022-09-12T20:48:38.966Z,15.52
2022-09-12T20:51:07.273Z,15.47
2022-09-12T20:53:35.380Z,15.36
2022-09-12T20:56:03.698Z,15.22
2022-09-12T20:58:30.326Z,15.05
2022-09-12T21:00:57.122Z,14.93
2022-09-12T21:03:25.462Z,14.88
2022-09-12T21:05:52.717Z,14.82
2022-09-12T21:08:19.427Z,14.77
2022-09-12T21:10:46.088Z,14.76
2022-09-12T21:13:13.746Z,14.74
2022-09-12T21:15:41.392Z,14.69
2022-09-12T21:18:08.144Z,14.67
2022-09-12T21:20:34.815Z,14.68
2022-09-12T21:23:01.656Z,14.73
2022-09-12T21:25:29.512Z,14.74
2022-09-12T21:27:56.158Z,14.71
2022-09-12T21:30:22.772Z,14.66
2022-09-12T21:32:49.413Z,14.67
2022-09-12T21:35:16.430Z,14.73
2022-09-12T21:37:43.096Z,14.68
2022-09-12T21:40:10.138Z,14.63
2022-09-12T21:42:37.330Z,14.63
2022-09-12T21:45:04.291Z,14.71
2022-09-12T21:47:30.986Z,14.73
2022-09-12T21:49:58.441Z,14.63
2022-09-12T21:52:25.411Z,14.50
2022-09-12T21:54:51.992Z,14.36
2022-09-12T21:57:18.599Z,14.26
2022-09-12T21:59:45.198Z,14.16
2022-09-12T22:02:12.475Z,14.04
2022-09-12T22:04:39.205Z,13.97
2022-09-12T22:07:06.039Z,13.98
2022-09-12T22:09:34.358Z,14.03
2022-09-12T22:12:02.457Z,14.07
2022-09-12T22:14:29.682Z,14.03
2022-09-12T22:16:56.802Z,13.93
2022-09-12T22:19:23.494Z,13.81
2022-09-12T22:22:09.103Z,13.68
2022-09-12T22:24:35.716Z,13.62
2022-09-12T22:27:04.711Z,13.49
2022-09-12T22:29:31.999Z,13.48
2022-09-12T22:31:59.663Z,13.48
2022-09-12T22:34:29.130Z,13.50
2022-09-12T22:36:56.371Z,13.45
2022-09-12T22:39:24.077Z,13.39
2022-09-12T22:41:50.985Z,13.36
2022-09-12T22:44:17.891Z,13.44
2022-09-12T22:46:44.765Z,13.38
2022-09-12T22:49:11.424Z,13.34
2022-09-12T22:51:38.527Z,13.27
2022-09-12T22:54:05.902Z,13.23
2022-09-12T22:56:32.791Z,13.23
2022-09-12T22:58:59.421Z,13.20
2022-09-12T23:01:26.091Z,13.27
2022-09-12T23:03:52.806Z,13.22
2022-09-12T23:06:19.465Z,13.12
2022-09-12T23:08:46.124Z,13.04
2022-09-12T23:11:15.506Z,12.99
2022-09-12T23:13:44.916Z,12.93
2022-09-12T23:16:32.093Z,12.77
2022-09-12T23:18:58.757Z,12.75
2022-09-12T23:21:25.505Z,12.72
2022-09-12T23:23:52.243Z,12.67
2022-09-12T23:26:30.724Z,12.69
2022-09-12T23:28:59.372Z,12.75
2022-09-12T23:31:31.436Z,12.74
2022-09-12T23:34:05.960Z,12.70
2022-09-12T23:36:34.211Z,12.75
2022-09-12T23:39:01.161Z,12.62
2022-09-12T23:41:28.120Z,12.64
2022-09-12T23:43:54.835Z,12.68
2022-09-12T23:46:22.326Z,12.68
2022-09-12T23:48:49.522Z,12.63
2022-09-12T23:51:16.298Z,12.49
2022-09-12T23:53:43.060Z,12.32
2022-09-12T23:56:09.991Z,12.36
2022-09-12T23:58:36.919Z,12.31
